sensor_id;sensor_type;location;lat;lon;timestamp;temperature;humidity
4461;DHT22;2243;48.812;9.232;2022-11-03T00:00:01;9.40;99.90
4461;DHT22;2243;48.812;9.232;2022-11-03T00:02:31;9.40;99.90
4461;DHT22;2243;48.812;9.232;2022-11-03T00:05:03;9.30;99.90
4461;DHT22;2243;48.812;9.232;2022-11-03T00:07:54;9.20;99.90
4461;DHT22;2243;48.812;9.232;2022-11-03T00:10:25;9.30;99.90
4461;DHT22;2243;48.812;9.232;2022-11-03T00:12:55;9.50;99.90
4461;DHT22;2243;48.812;9.232;2022-11-03T00:15:26;9.50;99.90
4461;DHT22;2243;48.812;9.232;2022-11-03T00:17:57;9.40;99.90
4461;DHT22;2243;48.812;9.232;2022-11-03T00:20:28;9.30;99.90
4461;DHT22;2243;48.812;9.232;2022-11-03T00:22:59;9.20;99.90
4461;DHT22;2243;48.812;9.232;2022-11-03T00:25:30;9.30;99.90
4461;DHT22;2243;48.812;9.232;2022-11-03T00:28:01;9.20;99.90
4461;DHT22;2243;48.812;9.232;2022-11-03T00:30:32;9.10;99.90
4461;DHT22;2243;48.812;9.232;2022-11-03T00:33:03;9.10;99.90
4461;DHT22;2243;48.812;9.232;2022-11-03T00:35:35;9.10;99.90
4461;DHT22;2243;48.812;9.232;2022-11-03T00:38:05;9.00;99.90
4461;DHT22;2243;48.812;9.232;2022-11-03T00:40:36;9.10;99.90
4461;DHT22;2243;48.812;9.232;2022-11-03T00:43:07;9.10;99.90
4461;DHT22;2243;48.812;9.232;2022-11-03T00:45:38;8.90;99.90
4461;DHT22;2243;48.812;9.232;2022-11-03T00:48:09;8.90;99.90
4461;DHT22;2243;48.812;9.232;2022-11-03T00:56:22;8.90;99.90
4461;DHT22;2243;48.812;9.232;2022-11-03T00:58:56;8.90;99.90
4461;DHT22;2243;48.812;9.232;2022-11-03T01:01:31;8.90;99.90
4461;DHT22;2243;48.812;9.232;2022-11-03T01:04:09;8.90;99.90
4461;DHT22;2243;48.812;9.232;2022-11-03T01:06:59;8.90;99.90
4461;DHT22;2243;48.812;9.232;2022-11-03T01:09:38;8.80;99.90
4461;DHT22;2243;48.812;9.232;2022-11-03T01:12:15;8.80;99.90
4461;DHT22;2243;48.812;9.232;2022-11-03T01:14:50;8.70;99.90
4461;DHT22;2243;48.812;9.232;2022-11-03T01:17:24;8.70;99.90
4461;DHT22;2243;48.812;9.232;2022-11-03T01:19:56;8.70;99.90
4461;DHT22;2243;48.812;9.232;2022-11-03T01:22:27;8.80;99.90
4461;DHT22;2243;48.812;9.232;2022-11-03T01:24:57;8.80;99.90
4461;DHT22;2243;48.812;9.232;2022-11-03T01:27:28;8.80;99.90
4461;DHT22;2243;48.812;9.232;2022-11-03T01:29:59;8.70;99.90
4461;DHT22;2243;48.812;9.232;2022-11-03T01:32:30;8.70;99.90
4461;DHT22;2243;48.812;9.232;2022-11-03T01:35:01;8.60;99.90
4461;DHT22;2243;48.812;9.232;2022-11-03T01:37:32;8.70;99.90
4461;DHT22;2243;48.812;9.232;2022-11-03T01:40:03;8.60;99.90
4461;DHT22;2243;48.812;9.232;2022-11-03T01:42:34;8.50;99.90
4461;DHT22;2243;48.812;9.232;2022-11-03T01:45:07;8.50;99.90
4461;DHT22;2243;48.812;9.232;2022-11-03T01:47:40;8.30;99.90
4461;DHT22;2243;48.812;9.232;2022-11-03T01:50:17;8.20;99.90
4461;DHT22;2243;48.812;9.232;2022-11-03T01:52:57;8.20;99.90
4461;DHT22;2243;48.812;9.232;2022-11-03T01:55:31;8.30;99.90
4461;DHT22;2243;48.812;9.232;2022-11-03T01:58:17;8.30;99.90
4461;DHT22;2243;48.812;9.232;2022-11-03T02:00:52;8.30;99.90
4461;DHT22;2243;48.812;9.232;2022-11-03T02:03:26;8.30;99.90
4461;DHT22;2243;48.812;9.232;2022-11-03T02:05:58;8.40;99.90
4461;DHT22;2243;48.812;9.232;2022-11-03T02:08:37;8.30;99.90
4461;DHT22;2243;48.812;9.232;2022-11-03T02:11:12;8.40;99.90
4461;DHT22;2243;48.812;9.232;2022-11-03T02:14:02;8.30;99.90
4461;DHT22;2243;48.812;9.232;2022-11-03T02:16:33;8.40;99.90
4461;DHT22;2243;48.812;9.232;2022-11-03T02:19:07;8.40;99.90
4461;DHT22;2243;48.812;9.232;2022-11-03T02:21:57;8.30;99.90
4461;DHT22;2243;48.812;9.232;2022-11-03T02:24:52;8.30;99.90
4461;DHT22;2243;48.812;9.232;2022-11-03T02:27:27;8.10;99.90
4461;DHT22;2243;48.812;9.232;2022-11-03T02:29:59;8.10;99.90
4461;DHT22;2243;48.812;9.232;2022-11-03T02:35:52;8.10;99.90
4461;DHT22;2243;48.812;9.232;2022-11-03T02:38:31;8.10;99.90
4461;DHT22;2243;48.812;9.232;2022-11-03T02:41:06;8.30;99.90
4461;DHT22;2243;48.812;9.232;2022-11-03T02:43:39;8.20;99.90
4461;DHT22;2243;48.812;9.232;2022-11-03T02:46:12;8.30;99.90
4461;DHT22;2243;48.812;9.232;2022-11-03T02:48:45;8.20;99.90
4461;DHT22;2243;48.812;9.232;2022-11-03T02:51:17;8.10;99.90
4461;DHT22;2243;48.812;9.232;2022-11-03T02:54:06;8.20;99.90
4461;DHT22;2243;48.812;9.232;2022-11-03T02:56:49;8.10;99.90
4461;DHT22;2243;48.812;9.232;2022-11-03T02:59:36;8.10;99.90
4461;DHT22;2243;48.812;9.232;2022-11-03T03:02:16;8.10;99.90
4461;DHT22;2243;48.812;9.232;2022-11-03T03:04:54;8.00;99.90
4461;DHT22;2243;48.812;9.232;2022-11-03T03:07:30;7.90;99.90
4461;DHT22;2243;48.812;9.232;2022-11-03T03:10:32;7.90;99.90
4461;DHT22;2243;48.812;9.232;2022-11-03T03:13:10;7.80;99.90
4461;DHT22;2243;48.812;9.232;2022-11-03T03:16:10;7.80;99.90
4461;DHT22;2243;48.812;9.232;2022-11-03T03:18:49;7.80;99.90
4461;DHT22;2243;48.812;9.232;2022-11-03T03:21:25;7.80;99.90
4461;DHT22;2243;48.812;9.232;2022-11-03T03:24:06;7.80;99.90
4461;DHT22;2243;48.812;9.232;2022-11-03T03:26:46;7.80;99.90
4461;DHT22;2243;48.812;9.232;2022-11-03T03:29:26;7.70;99.90
4461;DHT22;2243;48.812;9.232;2022-11-03T03:32:02;7.80;99.90
4461;DHT22;2243;48.812;9.232;2022-11-03T03:34:38;7.70;99.90
4461;DHT22;2243;48.812;9.232;2022-11-03T03:37:13;7.70;99.90
4461;DHT22;2243;48.812;9.232;2022-11-03T03:39:48;7.70;99.90
4461;DHT22;2243;48.812;9.232;2022-11-03T03:42:23;7.60;99.90
4461;DHT22;2243;48.812;9.232;2022-11-03T03:44:57;7.70;99.90
4461;DHT22;2243;48.812;9.232;2022-11-03T03:47:31;7.70;99.90
4461;DHT22;2243;48.812;9.232;2022-11-03T03:50:04;7.60;99.90
4461;DHT22;2243;48.812;9.232;2022-11-03T03:52:36;7.60;99.90
4461;DHT22;2243;48.812;9.232;2022-11-03T03:55:16;7.50;99.90
4461;DHT22;2243;48.812;9.232;2022-11-03T03:57:48;7.50;99.90
4461;DHT22;2243;48.812;9.232;2022-11-03T04:00:19;7.50;99.90
4461;DHT22;2243;48.812;9.232;2022-11-03T04:02:50;7.50;99.90
4461;DHT22;2243;48.812;9.232;2022-11-03T04:05:20;7.40;99.90
4461;DHT22;2243;48.812;9.232;2022-11-03T04:07:51;7.30;99.90
4461;DHT22;2243;48.812;9.232;2022-11-03T04:10:23;7.30;99.90
4461;DHT22;2243;48.812;9.232;2022-11-03T04:12:54;7.20;99.90
4461;DHT22;2243;48.812;9.232;2022-11-03T04:15:43;7.20;99.90
4461;DHT22;2243;48.812;9.232;2022-11-03T04:18:33;7.10;99.90
4461;DHT22;2243;48.812;9.232;2022-11-03T04:21:23;7.10;99.90
4461;DHT22;2243;48.812;9.232;2022-11-03T04:24:12;7.00;99.90
4461;DHT22;2243;48.812;9.232;2022-11-03T04:26:43;7.00;99.90
4461;DHT22;2243;48.812;9.232;2022-11-03T04:29:14;7.00;99.90
4461;DHT22;2243;48.812;9.232;2022-11-03T04:31:45;7.00;99.90
4461;DHT22;2243;48.812;9.232;2022-11-03T04:34:16;7.00;99.90
4461;DHT22;2243;48.812;9.232;2022-11-03T04:36:47;7.00;99.90
4461;DHT22;2243;48.812;9.232;2022-11-03T04:39:19;7.10;99.90
4461;DHT22;2243;48.812;9.232;2022-11-03T04:41:50;7.40;99.90
4461;DHT22;2243;48.812;9.232;2022-11-03T04:44:21;7.40;99.90
4461;DHT22;2243;48.812;9.232;2022-11-03T04:46:53;7.50;99.90
4461;DHT22;2243;48.812;9.232;2022-11-03T04:49:24;7.40;99.90
4461;DHT22;2243;48.812;9.232;2022-11-03T04:51:55;7.20;99.90
4461;DHT22;2243;48.812;9.232;2022-11-03T04:54:26;7.00;99.90
4461;DHT22;2243;48.812;9.232;2022-11-03T04:56:57;7.00;99.90
4461;DHT22;2243;48.812;9.232;2022-11-03T04:59:28;7.00;99.90
4461;DHT22;2243;48.812;9.232;2022-11-03T05:02:00;6.90;99.90
4461;DHT22;2243;48.812;9.232;2022-11-03T05:04:31;7.30;99.90
4461;DHT22;2243;48.812;9.232;2022-11-03T05:07:04;7.30;99.90
4461;DHT22;2243;48.812;9.232;2022-11-03T05:09:43;7.20;99.90
4461;DHT22;2243;48.812;9.232;2022-11-03T05:12:14;7.20;99.90
4461;DHT22;2243;48.812;9.232;2022-11-03T05:14:46;7.10;99.90
4461;DHT22;2243;48.812;9.232;2022-11-03T05:17:21;7.20;99.90
4461;DHT22;2243;48.812;9.232;2022-11-03T05:19:58;7.20;99.90
4461;DHT22;2243;48.812;9.232;2022-11-03T05:22:34;7.20;99.90
4461;DHT22;2243;48.812;9.232;2022-11-03T05:25:31;7.30;99.90
4461;DHT22;2243;48.812;9.232;2022-11-03T05:28:34;7.40;99.90
4461;DHT22;2243;48.812;9.232;2022-11-03T05:31:29;7.30;99.90
4461;DHT22;2243;48.812;9.232;2022-11-03T05:34:05;7.40;99.90
4461;DHT22;2243;48.812;9.232;2022-11-03T05:36:49;7.40;99.90
4461;DHT22;2243;48.812;9.232;2022-11-03T05:39:34;7.40;99.90
4461;DHT22;2243;48.812;9.232;2022-11-03T05:44:53;7.50;99.90
4461;DHT22;2243;48.812;9.232;2022-11-03T05:47:29;7.50;99.90
4461;DHT22;2243;48.812;9.232;2022-11-03T05:50:19;7.50;99.90
4461;DHT22;2243;48.812;9.232;2022-11-03T05:52:55;7.60;99.90
4461;DHT22;2243;48.812;9.232;2022-11-03T05:55:32;7.60;99.90
4461;DHT22;2243;48.812;9.232;2022-11-03T06:00:55;7.50;99.90
4461;DHT22;2243;48.812;9.232;2022-11-03T06:03:28;7.50;99.90
4461;DHT22;2243;48.812;9.232;2022-11-03T06:06:01;7.60;99.90
4461;DHT22;2243;48.812;9.232;2022-11-03T06:08:34;7.60;99.90
4461;DHT22;2243;48.812;9.232;2022-11-03T06:11:20;7.70;99.90
4461;DHT22;2243;48.812;9.232;2022-11-03T06:13:55;7.60;99.90
4461;DHT22;2243;48.812;9.232;2022-11-03T06:22:00;7.40;99.90
4461;DHT22;2243;48.812;9.232;2022-11-03T06:24:34;7.50;99.90
4461;DHT22;2243;48.812;9.232;2022-11-03T06:27:10;7.50;99.90
4461;DHT22;2243;48.812;9.232;2022-11-03T06:29:49;7.50;99.90
4461;DHT22;2243;48.812;9.232;2022-11-03T06:32:22;7.40;99.90
4461;DHT22;2243;48.812;9.232;2022-11-03T06:34:55;7.40;99.90
4461;DHT22;2243;48.812;9.232;2022-11-03T06:37:31;7.40;99.90
4461;DHT22;2243;48.812;9.232;2022-11-03T06:42:39;7.40;99.90
4461;DHT22;2243;48.812;9.232;2022-11-03T06:45:19;7.30;99.90
4461;DHT22;2243;48.812;9.232;2022-11-03T06:47:52;7.40;99.90
4461;DHT22;2243;48.812;9.232;2022-11-03T06:53:03;7.40;99.90
4461;DHT22;2243;48.812;9.232;2022-11-03T06:55:36;7.40;99.90
4461;DHT22;2243;48.812;9.232;2022-11-03T06:58:34;7.50;99.90
4461;DHT22;2243;48.812;9.232;2022-11-03T07:01:17;7.30;99.90
4461;DHT22;2243;48.812;9.232;2022-11-03T07:03:51;7.20;99.90
4461;DHT22;2243;48.812;9.232;2022-11-03T07:06:35;7.20;99.90
4461;DHT22;2243;48.812;9.232;2022-11-03T07:09:13;7.10;99.90
4461;DHT22;2243;48.812;9.232;2022-11-03T07:11:55;7.30;99.90
4461;DHT22;2243;48.812;9.232;2022-11-03T07:14:29;7.30;99.90
4461;DHT22;2243;48.812;9.232;2022-11-03T07:17:06;7.40;99.90
4461;DHT22;2243;48.812;9.232;2022-11-03T07:19:46;7.60;99.90
4461;DHT22;2243;48.812;9.232;2022-11-03T07:22:26;7.80;99.90
4461;DHT22;2243;48.812;9.232;2022-11-03T07:25:01;7.90;99.90
4461;DHT22;2243;48.812;9.232;2022-11-03T07:27:37;7.80;99.90
4461;DHT22;2243;48.812;9.232;2022-11-03T07:32:56;7.90;99.90
4461;DHT22;2243;48.812;9.232;2022-11-03T07:35:33;8.00;99.90
4461;DHT22;2243;48.812;9.232;2022-11-03T07:38:27;8.10;99.90
4461;DHT22;2243;48.812;9.232;2022-11-03T07:41:00;8.30;99.90
4461;DHT22;2243;48.812;9.232;2022-11-03T07:43:32;8.40;99.90
4461;DHT22;2243;48.812;9.232;2022-11-03T07:46:05;8.30;99.90
4461;DHT22;2243;48.812;9.232;2022-11-03T07:48:47;8.30;99.90
4461;DHT22;2243;48.812;9.232;2022-11-03T07:51:32;8.30;99.90
4461;DHT22;2243;48.812;9.232;2022-11-03T07:54:29;8.20;99.90
4461;DHT22;2243;48.812;9.232;2022-11-03T07:57:09;8.20;99.90
4461;DHT22;2243;48.812;9.232;2022-11-03T07:59:49;8.50;99.90
4461;DHT22;2243;48.812;9.232;2022-11-03T08:02:36;8.50;99.90
4461;DHT22;2243;48.812;9.232;2022-11-03T08:05:11;8.60;99.90
4461;DHT22;2243;48.812;9.232;2022-11-03T08:07:43;8.70;99.90
4461;DHT22;2243;48.812;9.232;2022-11-03T08:10:14;8.60;99.90
4461;DHT22;2243;48.812;9.232;2022-11-03T08:12:45;8.70;99.90
4461;DHT22;2243;48.812;9.232;2022-11-03T08:15:16;8.70;99.90
4461;DHT22;2243;48.812;9.232;2022-11-03T08:17:46;8.80;99.90
4461;DHT22;2243;48.812;9.232;2022-11-03T08:20:24;8.80;99.90
4461;DHT22;2243;48.812;9.232;2022-11-03T08:22:55;8.90;99.90
4461;DHT22;2243;48.812;9.232;2022-11-03T08:25:46;9.00;99.90
4461;DHT22;2243;48.812;9.232;2022-11-03T08:28:17;8.90;99.90
4461;DHT22;2243;48.812;9.232;2022-11-03T08:30:48;9.10;99.90
4461;DHT22;2243;48.812;9.232;2022-11-03T08:33:19;9.20;99.90
4461;DHT22;2243;48.812;9.232;2022-11-03T08:35:50;9.30;99.90
4461;DHT22;2243;48.812;9.232;2022-11-03T08:38:21;9.20;99.90
4461;DHT22;2243;48.812;9.232;2022-11-03T08:40:55;9.40;99.90
4461;DHT22;2243;48.812;9.232;2022-11-03T08:43:27;9.50;99.90
4461;DHT22;2243;48.812;9.232;2022-11-03T08:45:58;9.50;99.90
4461;DHT22;2243;48.812;9.232;2022-11-03T08:48:39;9.70;99.90
4461;DHT22;2243;48.812;9.232;2022-11-03T08:51:10;9.80;99.90
4461;DHT22;2243;48.812;9.232;2022-11-03T08:53:43;9.80;99.90
4461;DHT22;2243;48.812;9.232;2022-11-03T08:56:15;10.00;99.90
4461;DHT22;2243;48.812;9.232;2022-11-03T08:58:51;10.00;99.90
4461;DHT22;2243;48.812;9.232;2022-11-03T09:01:22;9.90;99.90
4461;DHT22;2243;48.812;9.232;2022-11-03T09:03:53;10.10;99.90
4461;DHT22;2243;48.812;9.232;2022-11-03T09:06:24;10.10;99.90
4461;DHT22;2243;48.812;9.232;2022-11-03T09:08:55;10.20;99.90
4461;DHT22;2243;48.812;9.232;2022-11-03T09:11:46;10.30;99.90
4461;DHT22;2243;48.812;9.232;2022-11-03T09:14:17;10.30;99.90
4461;DHT22;2243;48.812;9.232;2022-11-03T09:16:48;10.40;99.90
4461;DHT22;2243;48.812;9.232;2022-11-03T09:19:19;10.50;99.90
4461;DHT22;2243;48.812;9.232;2022-11-03T09:21:50;10.40;99.90
4461;DHT22;2243;48.812;9.232;2022-11-03T09:24:22;10.50;99.90
4461;DHT22;2243;48.812;9.232;2022-11-03T09:26:53;10.50;99.90
4461;DHT22;2243;48.812;9.232;2022-11-03T09:29:31;10.60;99.90
4461;DHT22;2243;48.812;9.232;2022-11-03T09:32:23;10.60;99.90
4461;DHT22;2243;48.812;9.232;2022-11-03T09:34:54;10.80;99.90
4461;DHT22;2243;48.812;9.232;2022-11-03T09:37:25;10.80;99.90
4461;DHT22;2243;48.812;9.232;2022-11-03T09:39:56;10.90;99.90
4461;DHT22;2243;48.812;9.232;2022-11-03T09:42:28;10.90;99.90
4461;DHT22;2243;48.812;9.232;2022-11-03T09:45:00;11.00;99.90
4461;DHT22;2243;48.812;9.232;2022-11-03T09:47:37;11.10;99.90
4461;DHT22;2243;48.812;9.232;2022-11-03T09:50:13;11.10;99.90
4461;DHT22;2243;48.812;9.232;2022-11-03T09:52:47;11.20;99.90
4461;DHT22;2243;48.812;9.232;2022-11-03T09:55:24;11.30;99.90
4461;DHT22;2243;48.812;9.232;2022-11-03T09:57:59;11.40;99.90
4461;DHT22;2243;48.812;9.232;2022-11-03T10:00:30;11.60;99.90
4461;DHT22;2243;48.812;9.232;2022-11-03T10:03:02;11.70;99.90
4461;DHT22;2243;48.812;9.232;2022-11-03T10:05:35;11.90;99.90
4461;DHT22;2243;48.812;9.232;2022-11-03T10:08:10;11.80;99.90
4461;DHT22;2243;48.812;9.232;2022-11-03T10:10:53;11.70;99.90
4461;DHT22;2243;48.812;9.232;2022-11-03T10:13:33;11.80;99.90
4461;DHT22;2243;48.812;9.232;2022-11-03T10:16:11;11.80;99.90
4461;DHT22;2243;48.812;9.232;2022-11-03T10:18:47;11.90;99.90
4461;DHT22;2243;48.812;9.232;2022-11-03T10:21:28;11.80;99.90
4461;DHT22;2243;48.812;9.232;2022-11-03T10:24:00;11.90;99.90
4461;DHT22;2243;48.812;9.232;2022-11-03T10:26:43;11.90;99.90
4461;DHT22;2243;48.812;9.232;2022-11-03T10:29:23;11.90;99.90
4461;DHT22;2243;48.812;9.232;2022-11-03T10:31:56;12.00;99.90
4461;DHT22;2243;48.812;9.232;2022-11-03T10:34:32;12.10;99.90
4461;DHT22;2243;48.812;9.232;2022-11-03T10:39:41;12.10;99.90
4461;DHT22;2243;48.812;9.232;2022-11-03T10:42:26;12.00;99.90
4461;DHT22;2243;48.812;9.232;2022-11-03T10:45:23;12.10;99.90
4461;DHT22;2243;48.812;9.232;2022-11-03T10:48:04;12.20;99.90
4461;DHT22;2243;48.812;9.232;2022-11-03T10:50:40;12.30;99.90
4461;DHT22;2243;48.812;9.232;2022-11-03T10:53:19;12.30;99.90
4461;DHT22;2243;48.812;9.232;2022-11-03T10:55:50;12.40;99.90
4461;DHT22;2243;48.812;9.232;2022-11-03T10:58:21;12.40;99.90
4461;DHT22;2243;48.812;9.232;2022-11-03T11:00:52;12.40;99.90
4461;DHT22;2243;48.812;9.232;2022-11-03T11:03:23;12.50;99.90
4461;DHT22;2243;48.812;9.232;2022-11-03T11:05:54;12.50;99.90
4461;DHT22;2243;48.812;9.232;2022-11-03T11:08:25;12.40;99.90
4461;DHT22;2243;48.812;9.232;2022-11-03T11:10:56;12.40;99.90
4461;DHT22;2243;48.812;9.232;2022-11-03T11:13:27;12.40;99.90
4461;DHT22;2243;48.812;9.232;2022-11-03T11:16:01;12.50;99.90
4461;DHT22;2243;48.812;9.232;2022-11-03T11:23:48;12.60;99.90
4461;DHT22;2243;48.812;9.232;2022-11-03T11:31:40;12.50;99.90
4461;DHT22;2243;48.812;9.232;2022-11-03T11:42:12;12.50;99.90
4461;DHT22;2243;48.812;9.232;2022-11-03T11:44:58;12.60;99.90
4461;DHT22;2243;48.812;9.232;2022-11-03T11:47:50;12.70;99.90
4461;DHT22;2243;48.812;9.232;2022-11-03T11:50:23;12.70;99.90
4461;DHT22;2243;48.812;9.232;2022-11-03T12:01:30;12.90;99.90
4461;DHT22;2243;48.812;9.232;2022-11-03T12:04:14;12.80;99.90
4461;DHT22;2243;48.812;9.232;2022-11-03T12:06:53;12.80;99.90
4461;DHT22;2243;48.812;9.232;2022-11-03T12:09:27;12.80;99.90
4461;DHT22;2243;48.812;9.232;2022-11-03T12:11:59;12.70;99.90
4461;DHT22;2243;48.812;9.232;2022-11-03T12:14:38;12.70;99.90
4461;DHT22;2243;48.812;9.232;2022-11-03T12:19:48;12.90;99.90
4461;DHT22;2243;48.812;9.232;2022-11-03T12:25:03;12.80;99.90
4461;DHT22;2243;48.812;9.232;2022-11-03T12:30:15;12.90;99.90
4461;DHT22;2243;48.812;9.232;2022-11-03T12:32:48;12.90;99.90
4461;DHT22;2243;48.812;9.232;2022-11-03T12:35:21;12.80;99.90
4461;DHT22;2243;48.812;9.232;2022-11-03T12:37:52;12.90;99.90
4461;DHT22;2243;48.812;9.232;2022-11-03T12:40:23;12.90;99.90
4461;DHT22;2243;48.812;9.232;2022-11-03T12:42:56;12.80;99.90
4461;DHT22;2243;48.812;9.232;2022-11-03T12:45:27;12.80;99.90
4461;DHT22;2243;48.812;9.232;2022-11-03T12:47:58;12.80;99.90
4461;DHT22;2243;48.812;9.232;2022-11-03T12:50:29;12.70;99.90
4461;DHT22;2243;48.812;9.232;2022-11-03T12:53:00;12.80;99.90
4461;DHT22;2243;48.812;9.232;2022-11-03T12:55:32;12.80;99.90
4461;DHT22;2243;48.812;9.232;2022-11-03T12:58:03;12.70;99.90
4461;DHT22;2243;48.812;9.232;2022-11-03T13:00:35;12.70;99.90
4461;DHT22;2243;48.812;9.232;2022-11-03T13:03:06;12.80;99.90
4461;DHT22;2243;48.812;9.232;2022-11-03T13:05:37;12.80;99.90
4461;DHT22;2243;48.812;9.232;2022-11-03T13:08:08;12.80;99.90
4461;DHT22;2243;48.812;9.232;2022-11-03T13:10:39;12.80;99.90
4461;DHT22;2243;48.812;9.232;2022-11-03T13:13:10;12.80;99.90
4461;DHT22;2243;48.812;9.232;2022-11-03T13:15:41;12.70;99.90
4461;DHT22;2243;48.812;9.232;2022-11-03T13:18:12;12.70;99.90
4461;DHT22;2243;48.812;9.232;2022-11-03T13:20:44;12.70;99.90
4461;DHT22;2243;48.812;9.232;2022-11-03T13:23:15;12.70;99.90
4461;DHT22;2243;48.812;9.232;2022-11-03T13:25:51;12.80;99.90
4461;DHT22;2243;48.812;9.232;2022-11-03T13:28:22;12.80;99.90
4461;DHT22;2243;48.812;9.232;2022-11-03T13:30:53;12.90;99.90
4461;DHT22;2243;48.812;9.232;2022-11-03T13:33:24;12.90;99.90
4461;DHT22;2243;48.812;9.232;2022-11-03T13:35:55;12.80;99.90
4461;DHT22;2243;48.812;9.232;2022-11-03T13:38:26;12.80;99.90
4461;DHT22;2243;48.812;9.232;2022-11-03T13:40:57;12.80;99.90
4461;DHT22;2243;48.812;9.232;2022-11-03T13:43:36;12.80;99.90
4461;DHT22;2243;48.812;9.232;2022-11-03T13:46:07;12.80;99.90
4461;DHT22;2243;48.812;9.232;2022-11-03T13:48:38;12.80;99.90
4461;DHT22;2243;48.812;9.232;2022-11-03T13:51:29;12.90;99.90
4461;DHT22;2243;48.812;9.232;2022-11-03T13:54:00;12.90;99.90
4461;DHT22;2243;48.812;9.232;2022-11-03T13:56:51;12.90;99.90
4461;DHT22;2243;48.812;9.232;2022-11-03T13:59:42;13.00;99.90
4461;DHT22;2243;48.812;9.232;2022-11-03T14:02:13;13.00;99.90
4461;DHT22;2243;48.812;9.232;2022-11-03T14:05:04;13.00;99.90
4461;DHT22;2243;48.812;9.232;2022-11-03T14:07:38;12.90;99.90
4461;DHT22;2243;48.812;9.232;2022-11-03T14:10:09;12.80;99.90
4461;DHT22;2243;48.812;9.232;2022-11-03T14:12:40;12.80;99.90
4461;DHT22;2243;48.812;9.232;2022-11-03T14:15:12;12.80;99.90
4461;DHT22;2243;48.812;9.232;2022-11-03T14:17:42;12.80;99.90
4461;DHT22;2243;48.812;9.232;2022-11-03T14:20:13;12.80;99.90
4461;DHT22;2243;48.812;9.232;2022-11-03T14:22:44;12.80;99.90
4461;DHT22;2243;48.812;9.232;2022-11-03T14:25:15;12.80;99.90
4461;DHT22;2243;48.812;9.232;2022-11-03T14:27:49;12.90;99.90
4461;DHT22;2243;48.812;9.232;2022-11-03T14:30:20;12.80;99.90
4461;DHT22;2243;48.812;9.232;2022-11-03T14:32:51;12.90;99.90
4461;DHT22;2243;48.812;9.232;2022-11-03T14:35:29;12.70;99.90
4461;DHT22;2243;48.812;9.232;2022-11-03T14:38:00;12.70;99.90
4461;DHT22;2243;48.812;9.232;2022-11-03T14:40:30;12.60;99.90
4461;DHT22;2243;48.812;9.232;2022-11-03T14:43:20;12.70;99.90
4461;DHT22;2243;48.812;9.232;2022-11-03T14:45:51;12.80;99.90
4461;DHT22;2243;48.812;9.232;2022-11-03T14:48:22;12.80;99.90
4461;DHT22;2243;48.812;9.232;2022-11-03T14:50:53;12.80;99.90
4461;DHT22;2243;48.812;9.232;2022-11-03T14:53:24;12.80;99.90
4461;DHT22;2243;48.812;9.232;2022-11-03T14:55:56;12.90;99.90
4461;DHT22;2243;48.812;9.232;2022-11-03T14:58:27;12.90;99.90
4461;DHT22;2243;48.812;9.232;2022-11-03T15:00:57;12.90;99.90
4461;DHT22;2243;48.812;9.232;2022-11-03T15:03:29;12.80;99.90
4461;DHT22;2243;48.812;9.232;2022-11-03T15:06:00;12.70;99.90
4461;DHT22;2243;48.812;9.232;2022-11-03T15:08:31;12.70;99.90
4461;DHT22;2243;48.812;9.232;2022-11-03T15:11:03;12.80;99.90
4461;DHT22;2243;48.812;9.232;2022-11-03T15:13:37;12.80;99.90
4461;DHT22;2243;48.812;9.232;2022-11-03T15:16:16;12.90;99.90
4461;DHT22;2243;48.812;9.232;2022-11-03T15:18:47;12.80;99.90
4461;DHT22;2243;48.812;9.232;2022-11-03T15:21:19;12.80;99.90
4461;DHT22;2243;48.812;9.232;2022-11-03T15:23:50;12.80;99.90
4461;DHT22;2243;48.812;9.232;2022-11-03T15:26:41;12.80;99.90
4461;DHT22;2243;48.812;9.232;2022-11-03T15:29:12;12.80;99.90
4461;DHT22;2243;48.812;9.232;2022-11-03T15:31:43;12.80;99.90
4461;DHT22;2243;48.812;9.232;2022-11-03T15:34:18;12.70;99.90
4461;DHT22;2243;48.812;9.232;2022-11-03T15:36:48;12.80;99.90
4461;DHT22;2243;48.812;9.232;2022-11-03T15:39:19;12.80;99.90
4461;DHT22;2243;48.812;9.232;2022-11-03T15:41:50;12.80;99.90
4461;DHT22;2243;48.812;9.232;2022-11-03T15:44:21;12.60;99.90
4461;DHT22;2243;48.812;9.232;2022-11-03T15:46:52;12.70;99.90
4461;DHT22;2243;48.812;9.232;2022-11-03T15:49:23;12.70;99.90
4461;DHT22;2243;48.812;9.232;2022-11-03T15:51:54;12.70;99.90
4461;DHT22;2243;48.812;9.232;2022-11-03T15:54:25;12.70;99.90
4461;DHT22;2243;48.812;9.232;2022-11-03T15:56:56;12.80;99.90
4461;DHT22;2243;48.812;9.232;2022-11-03T15:59:27;12.70;99.90
4461;DHT22;2243;48.812;9.232;2022-11-03T16:01:57;12.70;99.90
4461;DHT22;2243;48.812;9.232;2022-11-03T16:04:48;12.70;99.90
4461;DHT22;2243;48.812;9.232;2022-11-03T16:07:19;12.70;99.90
4461;DHT22;2243;48.812;9.232;2022-11-03T16:09:50;12.70;99.90
4461;DHT22;2243;48.812;9.232;2022-11-03T16:12:22;12.80;99.90
4461;DHT22;2243;48.812;9.232;2022-11-03T16:14:54;12.80;99.90
4461;DHT22;2243;48.812;9.232;2022-11-03T16:17:24;12.80;99.90
4461;DHT22;2243;48.812;9.232;2022-11-03T16:19:55;12.80;99.90
4461;DHT22;2243;48.812;9.232;2022-11-03T16:22:26;12.70;99.90
4461;DHT22;2243;48.812;9.232;2022-11-03T16:24:57;13.00;99.90
4461;DHT22;2243;48.812;9.232;2022-11-03T16:27:28;13.10;99.90
4461;DHT22;2243;48.812;9.232;2022-11-03T16:29:59;13.10;99.90
4461;DHT22;2243;48.812;9.232;2022-11-03T16:32:30;13.10;99.90
4461;DHT22;2243;48.812;9.232;2022-11-03T16:35:01;13.20;99.90
4461;DHT22;2243;48.812;9.232;2022-11-03T16:37:32;13.30;99.90
4461;DHT22;2243;48.812;9.232;2022-11-03T16:40:04;13.30;99.90
4461;DHT22;2243;48.812;9.232;2022-11-03T16:42:35;13.40;99.90
4461;DHT22;2243;48.812;9.232;2022-11-03T16:45:19;13.60;99.90
4461;DHT22;2243;48.812;9.232;2022-11-03T16:47:52;13.50;99.90
4461;DHT22;2243;48.812;9.232;2022-11-03T16:50:23;13.40;99.90
4461;DHT22;2243;48.812;9.232;2022-11-03T16:52:54;13.30;99.90
4461;DHT22;2243;48.812;9.232;2022-11-03T16:55:26;13.20;99.90
4461;DHT22;2243;48.812;9.232;2022-11-03T16:57:57;13.20;99.90
4461;DHT22;2243;48.812;9.232;2022-11-03T17:00:28;13.10;99.90
4461;DHT22;2243;48.812;9.232;2022-11-03T17:02:59;13.10;99.90
4461;DHT22;2243;48.812;9.232;2022-11-03T17:05:30;13.00;99.90
4461;DHT22;2243;48.812;9.232;2022-11-03T17:08:01;13.10;99.90
4461;DHT22;2243;48.812;9.232;2022-11-03T17:10:32;13.10;99.90
4461;DHT22;2243;48.812;9.232;2022-11-03T17:13:03;13.00;99.90
4461;DHT22;2243;48.812;9.232;2022-11-03T17:15:39;13.00;99.90
4461;DHT22;2243;48.812;9.232;2022-11-03T17:18:10;13.00;99.90
4461;DHT22;2243;48.812;9.232;2022-11-03T17:20:41;13.00;99.90
4461;DHT22;2243;48.812;9.232;2022-11-03T17:23:12;13.10;99.90
4461;DHT22;2243;48.812;9.232;2022-11-03T17:25:43;13.10;99.90
4461;DHT22;2243;48.812;9.232;2022-11-03T17:28:14;13.10;99.90
4461;DHT22;2243;48.812;9.232;2022-11-03T17:30:48;13.20;99.90
4461;DHT22;2243;48.812;9.232;2022-11-03T17:33:20;13.10;99.90
4461;DHT22;2243;48.812;9.232;2022-11-03T17:35:51;13.10;99.90
4461;DHT22;2243;48.812;9.232;2022-11-03T17:38:23;13.20;99.90
4461;DHT22;2243;48.812;9.232;2022-11-03T17:40:55;13.20;99.90
4461;DHT22;2243;48.812;9.232;2022-11-03T17:43:26;13.20;99.90
4461;DHT22;2243;48.812;9.232;2022-11-03T17:45:59;13.20;99.90
4461;DHT22;2243;48.812;9.232;2022-11-03T17:48:30;13.10;99.90
4461;DHT22;2243;48.812;9.232;2022-11-03T17:51:01;13.10;99.90
4461;DHT22;2243;48.812;9.232;2022-11-03T17:53:34;13.10;99.90
4461;DHT22;2243;48.812;9.232;2022-11-03T17:56:06;13.10;99.90
4461;DHT22;2243;48.812;9.232;2022-11-03T17:59:00;13.10;99.90
4461;DHT22;2243;48.812;9.232;2022-11-03T18:01:31;13.10;99.90
4461;DHT22;2243;48.812;9.232;2022-11-03T18:04:12;13.10;99.90